Αναφορές METAR

 

LGKR - Ioannis Kapodist, Greece
Απόσταση από το σταθμό: ΝΝΑ 16km
Ενημερώθηκε: 22/10/2017 18:20
Διάσπαρτα Νέφη
Διάσπαρτα Νέφη
 Ανεμος από ΒΔ
Ανεμος: ΒΔ 7 km/h
Θερμοκρασία: 23°C
Σημείο Δρόσου: 16°C
Υγρασία: 65%
Βαρόμετρο: 1014 hPa
Νέφωση: Διάσπαρτα Νέφη
Ορατότητα: 10 km
Λεπτομέρειες νέφωσης: Διάσπαρτα Νέφη 610 m
2017/10/22 15:20 LGKR 221520Z 32004KT 9999 FEW020 23/16 Q1014 NOSIG
LGIO - Ioannina, Greece
Απόσταση από το σταθμό: Α 84km
Ενημερώθηκε: 22/10/2017 18:20
Διάσπαρτα Νέφη
Διάσπαρτα Νέφη
 Ανεμος από μεταβλητός
Ανεμος: μεταβλητός 0 km/h
Θερμοκρασία: 21°C
Σημείο Δρόσου: 11°C
Υγρασία: 53%
Βαρόμετρο: 1014 hPa
Νέφωση: Διάσπαρτα Νέφη
Ορατότητα: 10 km
Λεπτομέρειες νέφωσης: Διάσπαρτα Νέφη 914 m
2017/10/22 15:20 LGIO 221520Z /////KT 9999 FEW030 21/11 Q1014
 
LGPZ - Preveza/Aktion, Greece
Απόσταση από το σταθμό: ΝΑ 122km
Ενημερώθηκε: 22/10/2017 18:20
Διάσπαρτα Νέφη
Διάσπαρτα Νέφη
 Ανεμος από Δ
Ανεμος: Δ 20 km/h
Θερμοκρασία: 21°C
Σημείο Δρόσου: 16°C
Υγρασία: 73%
Βαρόμετρο: 1015 hPa
Νέφωση: Διάσπαρτα Νέφη
Ορατότητα: 10 km
Λεπτομέρειες νέφωσης: Διάσπαρτα Νέφη 914 m
2017/10/22 15:20 LGPZ 221520Z 27011KT 9999 FEW030 21/16 Q1015
LIBY - Santa Maria Di L, Italy
Απόσταση από το σταθμό: Δ 128km
Ενημερώθηκε: 22/10/2017 17:55

 
2017/10/22 14:55 LIBY 221455Z ///02KT CAVOK 19/15 Q1014 RMK FEW FEW200 QUK 2 QUL 1 W VIS MAR 10 KM VIS MIN 9999
 
LIBN - Lecce (it-Afb), Italy
Απόσταση από το σταθμό: ΔΒΔ 155km
Ενημερώθηκε: 22/10/2017 17:55
Αίθριος
Αίθριος
 Ανεμος από ΝΔ
Ανεμος: ΝΔ 13 km/h
Θερμοκρασία: 22°C
Σημείο Δρόσου: 15°C
Υγρασία: 65%
Βαρόμετρο: 1015 hPa
Summary: Αίθριος
Ορατότητα: greater than 10 km
2017/10/22 14:55 LIBN 221455Z 22007KT CAVOK 22/15 Q1015 RMK BKN BKN200 VIS MIN 9999 WIND THR14 21007KT WIND THR32 23008KT BLU
LWOH - Ohrid, Macedonia
Απόσταση από το σταθμό: ΒΒΑ 177km
Ενημερώθηκε: 22/10/2017 18:30
Διάσπαρτα Νέφη
Διάσπαρτα Νέφη
 Ανεμος από ΝΝΑ
Ανεμος: ΝΝΑ 4 km/h
Θερμοκρασία: 17°C
Σημείο Δρόσου: 10°C
Υγρασία: 64%
Βαρόμετρο: 1015 hPa
Νέφωση: Διάσπαρτα Νέφη
Ορατότητα: 10 km
Λεπτομέρειες νέφωσης: Διάσπαρτα Νέφη 1219 m
2017/10/22 15:30 LWOH 221530Z 16002KT 9999 FEW040 17/10 Q1015
 
LGKZ - Kozani (civ/Army, Greece
Απόσταση από το σταθμό: ΑΒΑ 180km
Ενημερώθηκε: 22/10/2017 17:50
Αίθριος
Αίθριος
 Ανεμος από calm
Ανεμος: Απνοια
Θερμοκρασία: 23°C
Σημείο Δρόσου: 2°C
Υγρασία: 25%
Βαρόμετρο: 1013 hPa
Summary: Αίθριος
Ορατότητα: greater than 10 km
2017/10/22 14:50 LGKZ 221450Z 00000KT CAVOK 23/02 Q1013
LATI - Tirana, Albania
Απόσταση από το σταθμό: Β 186km
Ενημερώθηκε: 22/10/2017 18:20
Διάσπαρτα Νέφη
Διάσπαρτα Νέφη
 Ανεμος από ΔΒΔ
Ανεμος: ΔΒΔ 6 km/h
Θερμοκρασία: 20°C
Σημείο Δρόσου: 14°C
Υγρασία: 69%
Βαρόμετρο: 1014 hPa
Νέφωση: Διάσπαρτα Νέφη
Ορατότητα: 10 km
Λεπτομέρειες νέφωσης: Διάσπαρτα Νέφη 914 m
2017/10/22 15:20 LATI 221520Z 30003KT 9999 FEW030 20/14 Q1014 NOSIG
 
LIBR - Brindisi/Casale, Italy
Απόσταση από το σταθμό: ΔΒΔ 189km
Ενημερώθηκε: 22/10/2017 18:15
Αίθριος
Αίθριος
 Ανεμος από ΝΑ
Ανεμος: ΝΑ 24 km/h
Θερμοκρασία: 23°C
Σημείο Δρόσου: 17°C
Υγρασία: 69%
Βαρόμετρο: 1014 hPa
Summary: Αίθριος
Ορατότητα: greater than 10 km
2017/10/22 15:15 LIBR 221515Z 13013KT CAVOK 23/17 Q1014 NOSIG
LGKF - Kefallinia, Greece
Απόσταση από το σταθμό: ΝΝΑ 190km
Ενημερώθηκε: 22/10/2017 17:50
Διάσπαρτα Νέφη
Διάσπαρτα Νέφη
 Ανεμος από ΒΒΔ
Ανεμος: ΒΒΔ 30 km/h
Θερμοκρασία: 22°C
Σημείο Δρόσου: 18°C
Υγρασία: 78%
Βαρόμετρο: 1014 hPa
Νέφωση: Διάσπαρτα Νέφη
Ορατότητα: 10 km
Λεπτομέρειες νέφωσης: Διάσπαρτα Νέφη 549 m
2017/10/22 14:50 LGKF 221450Z 33016KT 9999 FEW018 22/18 Q1014
 
LGRX - Araxos (civ/Afb), Greece
Απόσταση από το σταθμό: ΝΑ 222km
Ενημερώθηκε: 22/10/2017 18:20
Αίθριος
Αίθριος
 Ανεμος από calm
Ανεμος: Απνοια
Θερμοκρασία: 21°C
Σημείο Δρόσου: 16°C
Υγρασία: 73%
Βαρόμετρο: 1014 hPa
Summary: Αίθριος
Ορατότητα: greater than 10 km
2017/10/22 15:20 LGRX 221520Z 00000KT CAVOK 21/16 Q1014
LIBG - Grottaglie(Civ/A, Italy
Απόσταση από το σταθμό: ΔΒΔ 226km
Ενημερώθηκε: 22/10/2017 17:50
Αίθριος
Αίθριος
 Ανεμος από ΝΔ
Ανεμος: ΝΔ 13 km/h
Θερμοκρασία: 24°C
Σημείο Δρόσου: 8°C
Υγρασία: 36%
Βαρόμετρο: 1013 hPa
Summary: Αίθριος
Ορατότητα: greater than 10 km
2017/10/22 14:50 LIBG 221450Z 22007KT CAVOK 24/08 Q1013
 
LGAD - Andravida (civ/A, Greece
Απόσταση από το σταθμό: ΝΝΑ 238km
Ενημερώθηκε: 22/10/2017 18:20
Αίθριος
Αίθριος
 Ανεμος από μεταβλητός
Ανεμος: μεταβλητός 6 km/h
Θερμοκρασία: 21°C
Σημείο Δρόσου: 14°C
Υγρασία: 64%
Βαρόμετρο: 1014 hPa
Summary: Αίθριος
Ορατότητα: greater than 10 km
2017/10/22 15:20 LGAD 221520Z VRB03KT CAVOK 21/14 Q1014
LGZA - Zakinthos Airpor, Greece
Απόσταση από το σταθμό: ΝΝΑ 239km
Ενημερώθηκε: 22/10/2017 18:20
Διάσπαρτα Νέφη
Διάσπαρτα Νέφη
 Ανεμος από Β
Ανεμος: Β 9 km/h
Θερμοκρασία: 22°C
Σημείο Δρόσου: 15°C
Υγρασία: 65%
Βαρόμετρο: 1014 hPa
Νέφωση: Διάσπαρτα Νέφη
Ορατότητα: 10 km
Λεπτομέρειες νέφωσης: Διάσπαρτα Νέφη 549 m
2017/10/22 15:20 LGZA 221520Z 35005KT 9999 FEW018 22/15 Q1014
 
LIBC - Crotone, Italy
Απόσταση από το σταθμό: ΔΝΔ 253km
Ενημερώθηκε: 16/07/2017 12:50
ΜΗ ΠΡΟΣΦΑΤΟ METAR
Διάσπαρτα Νέφη
Διάσπαρτα Νέφη
 Ανεμος από ΒΔ
Ανεμος: ΒΔ 33 km/h
Θερμοκρασία: 26°C
Σημείο Δρόσου: 9°C
Υγρασία: 34%
Βαρόμετρο: 1015 hPa
Νέφωση: Διάσπαρτα Νέφη
Ορατότητα: 10 km
Λεπτομέρειες νέφωσης: Διάσπαρτα Νέφη 610 m
2017/07/16 09:50 LIBC 160950Z 31018KT 9999 FEW020 26/09 Q1015
LGBL - Nea Anchialos, Greece
Απόσταση από το σταθμό: ΑΝΑ 261km
Ενημερώθηκε: 22/10/2017 18:20
Αίθριος
Αίθριος
 Ανεμος από ΑΝΑ
Ανεμος: ΑΝΑ 15 km/h
Θερμοκρασία: 23°C
Σημείο Δρόσου: 14°C
Υγρασία: 57%
Βαρόμετρο: 1011 hPa
Summary: Αίθριος
Ορατότητα: greater than 10 km
2017/10/22 15:20 LGBL 221520Z 12008KT CAVOK 23/14 Q1011
 
LIBH - Marina Di Ginosa, Italy
Απόσταση από το σταθμό: ΔΒΔ 264km
Ενημερώθηκε: 22/10/2017 17:55
Μερικώς Νεφελώδης
Μερικώς Νεφελώδης
 Ανεμος από Ν
Ανεμος: Ν 19 km/h
Θερμοκρασία: 22°C
Σημείο Δρόσου: 17°C
Υγρασία: 73%
Βαρόμετρο: 1012 hPa
Νέφωση: Μερικώς Νεφελώδης
Ορατότητα: 10 km
Λεπτομέρειες νέφωσης: Μερικώς Νεφελώδης 914 m
2017/10/22 14:55 LIBH 221455Z 18010KT 9999 SCT030 22/17 Q1012 RMK BKN SCT200 QUK 2 QUL 1 S VIS MAR 20 KM VIS MIN 9999
LIBV - Gioia Del Colle, Italy
Απόσταση από το σταθμό: ΔΒΔ 273km
Ενημερώθηκε: 22/10/2017 17:55
Κυρίως Νεφελώδης
Κυρίως Νεφελώδης
 Ανεμος από Ν
Ανεμος: Ν 19 km/h
Θερμοκρασία: 19°C
Σημείο Δρόσου: 4°C
Υγρασία: 37%
Βαρόμετρο: 1014 hPa
Νέφωση: Κυρίως Νεφελώδης
Ορατότητα: 10 km
Λεπτομέρειες νέφωσης: Κυρίως Νεφελώδης 1219 m
2017/10/22 14:55 LIBV 221455Z 17010KT 9999 BKN040 19/04 Q1014 RMK BKN VIS MIN 9999 WIND THR32 18009KT WIND THR14 18010KT BLU
 
LGTS - Thessaloniki/Mik, Greece
Απόσταση από το σταθμό: ΑΒΑ 279km
Ενημερώθηκε: 22/10/2017 18:20
Αίθριος
Αίθριος
 Ανεμος από Ν
Ανεμος: Ν 17 km/h
Θερμοκρασία: 23°C
Σημείο Δρόσου: 9°C
Υγρασία: 41%
Βαρόμετρο: 1011 hPa
Summary: Αίθριος
Ορατότητα: greater than 10 km
2017/10/22 15:20 LGTS 221520Z 17009KT CAVOK 23/09 Q1011 NOSIG
LWSK - Skopje/Petrovac, Macedonia
Απόσταση από το σταθμό: ΒΒΑ 289km
Ενημερώθηκε: 22/10/2017 18:30
Αίθριος
Αίθριος
 Ανεμος από Δ
Ανεμος: Δ 4 km/h
Θερμοκρασία: 20°C
Σημείο Δρόσου: 7°C
Υγρασία: 43%
Βαρόμετρο: 1012 hPa
Summary: Αίθριος
Ορατότητα: greater than 10 km
2017/10/22 15:30 LWSK 221530Z 26002KT CAVOK 20/07 Q1012 NOSIG


 ♦     ♦     ♦     Ποτέ μη βασίζετε κρίσιμες αποφάσεις σ'αυτές ή οποιεσδήποτε πληροφορίες καιρού από το Internet     ♦     ♦     ♦